Time;durP1;ratioP1;P1;durP2;ratioP2;P2;SDS_P1;SDS_P2;PMS_P1;PMS_P2;Temp;Humidity;BMP_temperature;BMP_pressure;BME280_temperature;BME280_humidity;BME280_pressure;Samples;Min_cycle;Max_cycle;Signal;HPM_P1;HPM_P2
2023/01/02 00:01:44;;;;;;;;;;;;;;;;;;6178562;23;19944;-93
2023/01/02 00:04:16;;;;;;;;;;;;;;;;;;6172270;23;20538;-92
2023/01/02 00:06:57;;;;;;;;;;;;;;;;;;6158487;23;20356;-92
2023/01/02 00:09:30;;;;;;;;;;;;;;;;;;6157571;23;19927;-92
2023/01/02 00:11:57;;;;;;;;;;;;;;;;;;6154025;23;19928;-93
2023/01/02 00:14:39;;;;;;;;;;;;;;;;;;6158961;23;19916;-94
2023/01/02 00:17:11;;;;;;;;;;;;;;;;;;6206008;23;20412;-92
2023/01/02 00:19:42;;;;;;;;;;;;;;;;;;6157575;23;19978;-92
2023/01/02 00:22:14;;;;;;;;;;;;;;;;;;6151751;23;19989;-92
2023/01/02 00:24:50;;;;;;;;;;;;;;;;;;;;;
2023/01/02 00:27:22;;;;;;;;;;;;;;;;;;6179011;23;19963;-92
2023/01/02 00:30:12;;;;;;;;;;;;;;;;;;6175686;23;20003;-92
2023/01/02 00:35:26;;;;;;;;;;;;;;;;;;6206269;23;20333;-91
2023/01/02 00:38:02;;;;;;;;;;;;;;;;;;6152386;23;20283;-92
2023/01/02 00:40:51;;;;;;;;;;;;;;;;;;6201581;23;19942;-93
2023/01/02 00:43:31;;;;;;;;;;;;;;;;;;6158197;23;19920;-93
2023/01/02 00:46:22;;;;;;;;;;;;;;;;;;;;;
2023/01/02 00:48:51;;;;;;;;;;;;;;;;;;6182668;23;19919;-93
2023/01/02 00:51:36;;;;;;;;;;;;;;;;;;6159316;23;19920;-93
2023/01/02 00:54:05;;;;;;;;;;;;;;;;;;6180167;23;20348;-92
2023/01/02 00:56:40;;;;;;;;;;;;;;;;;;6157189;23;19915;-93
2023/01/02 01:02:32;;;;;;;;;;;;;;;;;;6125248;23;19944;-93
2023/01/02 01:05:01;;;;;;;;;;;;;;;;;;6063325;23;19988;-92
2023/01/02 01:08:01;;;;;;;;;;;;;;;;;;;;;
2023/01/02 01:10:36;;;;;;;;;;;;;;;;;;6180363;23;19923;-92
2023/01/02 01:13:21;;;;;;;;;;;;;;;;;;6150810;23;20617;-93
2023/01/02 01:15:47;;;;;;;;;;;;;;;;;;6155324;23;19959;-92
2023/01/02 01:18:13;;;;;;;;;;;;;;;;;;6151449;23;19916;-92
2023/01/02 01:20:52;;;;;;;;;;;;;;;;;;6178343;23;20046;-92
2023/01/02 01:26:17;;;;;;;;;;;;;;;;;;6205454;23;20230;-92
2023/01/02 01:28:43;;;;;;;;;;;;;;;;;;6155716;23;20325;-92
2023/01/02 01:31:29;;;;;;;;;;;;;;;;;;;;;
2023/01/02 01:34:01;;;;;;;;;;;;;;;;;;6177954;23;19915;-92
2023/01/02 01:36:33;;;;;;;;;;;;;;;;;;6156288;23;19926;-92
2023/01/02 01:39:02;;;;;;;;;;;;;;;;;;6149118;23;19920;-92
2023/01/02 01:41:56;;;;;;;;;;;;;;;;;;;;;
2023/01/02 01:44:30;;;;;;;;;;;;;;;;;;;;;
2023/01/02 01:47:22;;;;;;;;;;;;;;;;;;6176771;23;20318;-92
2023/01/02 01:52:56;;;;;;;;;;;;;;;;;;6168245;23;19920;-93
2023/01/02 01:55:24;;;;;;;;;;;;;;;;;;6153515;23;19916;-93
2023/01/02 01:57:56;;;;;;;;;;;;;;;;;;6153048;23;19998;-92
2023/01/02 02:00:38;;;;;;;;;;;;;;;;;;6155465;23;19915;-92
2023/01/02 02:03:07;;;;;;;;;;;;;;;;;;6151309;23;20241;-93
2023/01/02 02:05:38;;;;;;;;;;;;;;;;;;6155261;23;19978;-92
2023/01/02 02:08:07;;;;;;;;;;;;;;;;;;6150865;23;19923;-91
2023/01/02 02:10:38;;;;;;;;;;;;;;;;;;6113600;23;19916;-92
2023/01/02 02:13:29;;;;;;;;;;;;;;;;;;6119689;23;19971;-92
2023/01/02 02:15:56;;;;;;;;;;;;;;;;;;6086799;23;19957;-93
2023/01/02 02:18:24;;;;;;;;;;;;;;;;;;6086810;23;19967;-92
2023/01/02 02:20:59;;;;;;;;;;;;;;;;;;6086957;23;19968;-92
2023/01/02 02:23:44;;;;;;;;;;;;;;;;;;6089097;23;19920;-91
2023/01/02 02:26:21;;;;;;;;;;;;;;;;;;6086594;23;19917;-91
2023/01/02 02:28:59;;;;;;;;;;;;;;;;;;6087403;23;20439;-95
2023/01/02 02:31:25;;;;;;;;;;;;;;;;;;6087438;23;19948;-92
2023/01/02 02:34:04;;;;;;;;;;;;;;;;;;6086785;23;20317;-92
2023/01/02 02:37:02;;;;;;;;;;;;;;;;;;6086533;23;19972;-91
2023/01/02 02:39:47;;;;;;;;;;;;;;;;;;;;;
2023/01/02 02:42:13;;;;;;;;;;;;;;;;;;6153782;23;20329;-92
2023/01/02 02:44:39;;;;;;;;;;;;;;;;;;6153214;23;19986;-92
2023/01/02 02:47:15;;;;;;;;;;;;;;;;;;;;;
2023/01/02 02:49:52;;;;;;;;;;;;;;;;;;6179003;23;19919;-92
2023/01/02 02:52:20;;;;;;;;;;;;;;;;;;6151260;23;20308;-92
2023/01/02 02:54:55;;;;;;;;;;;;;;;;;;6155175;23;19916;-92
2023/01/02 03:03:21;;;;;;;;;;;;;;;;;;6176045;23;20017;-91
2023/01/02 03:05:52;;;;;;;;;;;;;;;;;;6179017;23;19927;-92
2023/01/02 03:11:07;;;;;;;;;;;;;;;;;;6201781;23;19923;-91
2023/01/02 03:13:51;;;;;;;;;;;;;;;;;;6153118;23;19916;-91
2023/01/02 03:16:24;;;;;;;;;;;;;;;;;;6153831;23;19924;-92
2023/01/02 03:19:03;;;;;;;;;;;;;;;;;;;;;
2023/01/02 03:21:47;;;;;;;;;;;;;;;;;;6217816;23;19920;-93
2023/01/02 03:27:14;;;;;;;;;;;;;;;;;;6202127;23;19974;-91
2023/01/02 03:29:40;;;;;;;;;;;;;;;;;;6153910;23;19924;-92
2023/01/02 03:32:12;;;;;;;;;;;;;;;;;;6153317;23;19928;-92
2023/01/02 03:40:34;;;;;;;;;;;;;;;;;;6174864;23;19962;-92
2023/01/02 03:43:21;;;;;;;;;;;;;;;;;;6148266;23;20257;-92
2023/01/02 03:46:05;;;;;;;;;;;;;;;;;;6147523;23;19994;-93
2023/01/02 03:48:42;;;;;;;;;;;;;;;;;;6151122;23;19921;-92
2023/01/02 03:54:08;;;;;;;;;;;;;;;;;;6141317;23;19959;-93
2023/01/02 03:56:46;;;;;;;;;;;;;;;;;;6152344;23;19920;-94
2023/01/02 03:59:26;;;;;;;;;;;;;;;;;;6152225;23;20376;-92
2023/01/02 04:02:12;;;;;;;;;;;;;;;;;;;;;
2023/01/02 04:05:19;;;;;;;;;;;;;;;;;;6144264;23;20773;-92
2023/01/02 04:07:45;;;;;;;;;;;;;;;;;;6148479;23;19990;-92
2023/01/02 04:10:28;;;;;;;;;;;;;;;;;;6125808;23;19940;-93
2023/01/02 04:15:46;;;;;;;;;;;;;;;;;;6207348;23;19982;-93
2023/01/02 04:18:22;;;;;;;;;;;;;;;;;;6154190;23;19919;-92
2023/01/02 04:20:54;;;;;;;;;;;;;;;;;;6155873;23;20245;-92
2023/01/02 04:23:28;;;;;;;;;;;;;;;;;;6157706;23;19950;-91
2023/01/02 04:26:12;;;;;;;;;;;;;;;;;;6156314;23;19920;-93
2023/01/02 04:31:41;;;;;;;;;;;;;;;;;;6138763;23;19966;-92
2023/01/02 04:34:14;;;;;;;;;;;;;;;;;;6124743;23;19931;-92
2023/01/02 04:36:43;;;;;;;;;;;;;;;;;;6127254;23;19990;-91
2023/01/02 04:39:09;;;;;;;;;;;;;;;;;;6126167;23;19920;-92
2023/01/02 04:41:43;;;;;;;;;;;;;;;;;;6125705;23;19916;-93
2023/01/02 04:47:16;;;;;;;;;;;;;;;;;;6170537;23;20404;-92
2023/01/02 04:49:57;;;;;;;;;;;;;;;;;;6127765;23;19916;-92
2023/01/02 04:52:48;;;;;;;;;;;;;;;;;;6150491;23;19922;-91
2023/01/02 04:58:15;;;;;;;;;;;;;;;;;;6176424;23;19927;-91
2023/01/02 05:00:59;;;;;;;;;;;;;;;;;;6127600;23;19921;-92
2023/01/02 05:03:41;;;;;;;;;;;;;;;;;;;;;
2023/01/02 05:06:33;;;;;;;;;;;;;;;;;;6150802;23;19920;-92
2023/01/02 05:09:22;;;;;;;;;;;;;;;;;;;;;
2023/01/02 05:11:55;;;;;;;;;;;;;;;;;;6151298;23;19960;-93
2023/01/02 05:17:19;;;;;;;;;;;;;;;;;;6133465;23;19970;-91
2023/01/02 05:19:48;;;;;;;;;;;;;;;;;;6121445;23;20363;-93
2023/01/02 05:25:05;;;;;;;;;;;;;;;;;;6148458;23;19955;-92
2023/01/02 05:27:41;;;;;;;;;;;;;;;;;;6127587;23;19994;-93
2023/01/02 05:30:17;;;;;;;;;;;;;;;;;;;;;
2023/01/02 05:38:31;;;;;;;;;;;;;;;;;;;;;
2023/01/02 05:41:03;;;;;;;;;;;;;;;;;;6146823;23;19920;-92
2023/01/02 05:43:40;;;;;;;;;;;;;;;;;;;;;
2023/01/02 05:46:11;;;;;;;;;;;;;;;;;;6147555;23;19920;-92
2023/01/02 05:48:42;;;;;;;;;;;;;;;;;;6127020;23;19920;-92
2023/01/02 05:51:21;;;;;;;;;;;;;;;;;;6146215;23;19970;-93
2023/01/02 05:53:52;;;;;;;;;;;;;;;;;;6123781;23;19951;-93
2023/01/02 05:59:30;;;;;;;;;;;;;;;;;;;;;
2023/01/02 06:05:00;;;;;;;;;;;;;;;;;;6141660;23;20222;-92
2023/01/02 06:07:29;;;;;;;;;;;;;;;;;;6126517;23;19920;-92
2023/01/02 06:10:08;;;;;;;;;;;;;;;;;;6123628;23;19920;-92
2023/01/02 06:12:45;;;;;;;;;;;;;;;;;;;;;
2023/01/02 06:20:39;;;;;;;;;;;;;;;;;;6129380;23;21654;-92
2023/01/02 06:23:05;;;;;;;;;;;;;;;;;;6141690;23;20349;-92
2023/01/02 06:25:31;;;;;;;;;;;;;;;;;;6175687;23;19927;-90
2023/01/02 06:27:57;;;;;;;;;;;;;;;;;;6143823;23;20326;-90
2023/01/02 06:30:23;;;;;;;;;;;;;;;;;;6170401;23;19965;-91
2023/01/02 06:32:54;;;;;;;;;;;;;;;;;;6121176;23;19967;-91
2023/01/02 06:35:23;;;;;;;;;;;;;;;;;;6122352;23;19931;-90
2023/01/02 06:37:54;;;;;;;;;;;;;;;;;;6118912;23;19916;-90
2023/01/02 06:40:51;;;;;;;;;;;;;;;;;;;;;
2023/01/02 06:43:31;;;;;;;;;;;;;;;;;;6180315;23;19915;-90
2023/01/02 06:45:57;;;;;;;;;;;;;;;;;;6143209;23;19927;-90
2023/01/02 06:48:25;;;;;;;;;;;;;;;;;;6122839;23;20832;-89
2023/01/02 06:50:54;;;;;;;;;;;;;;;;;;6118394;23;19927;-91
2023/01/02 06:53:20;;;;;;;;;;;;;;;;;;6121912;23;19978;-89
2023/01/02 06:55:46;;;;;;;;;;;;;;;;;;6120928;23;20029;-89
2023/01/02 06:58:22;;;;;;;;;;;;;;;;;;6147527;23;19920;-90
2023/01/02 07:00:59;;;;;;;;;;;;;;;;;;6125034;23;19920;-90
2023/01/02 07:03:25;;;;;;;;;;;;;;;;;;6144806;23;19924;-90
2023/01/02 07:05:54;;;;;;;;;;;;;;;;;;6146671;23;19920;-90
2023/01/02 07:11:25;;;;;;;;;;;;;;;;;;6162633;23;19981;-90
2023/01/02 07:13:53;;;;;;;;;;;;;;;;;;6196319;23;19959;-89
2023/01/02 07:16:19;;;;;;;;;;;;;;;;;;6203085;23;19923;-90
2023/01/02 07:18:52;;;;;;;;;;;;;;;;;;6175081;23;19920;-91
2023/01/02 07:21:18;;;;;;;;;;;;;;;;;;6149429;23;19917;-91
2023/01/02 07:26:52;;;;;;;;;;;;;;;;;;6058031;23;19996;-92
2023/01/02 07:29:27;;;;;;;;;;;;;;;;;;6038920;23;19968;-93
2023/01/02 07:32:01;;;;;;;;;;;;;;;;;;6033913;23;20422;-92
2023/01/02 07:34:36;;;;;;;;;;;;;;;;;;6058800;23;19929;-93
2023/01/02 07:37:23;;;;;;;;;;;;;;;;;;6114782;23;19928;-93
2023/01/02 07:39:58;;;;;;;;;;;;;;;;;;6171828;23;19924;-93
2023/01/02 07:42:36;;;;;;;;;;;;;;;;;;6166182;23;19920;-92
2023/01/02 07:45:10;;;;;;;;;;;;;;;;;;6148124;23;19924;-92
2023/01/02 07:47:39;;;;;;;;;;;;;;;;;;6140762;23;19925;-92
2023/01/02 07:53:17;;;;;;;;;;;;;;;;;;6171697;23;20009;-92
2023/01/02 07:56:11;;;;;;;;;;;;;;;;;;6144075;23;20024;-92
2023/01/02 07:58:57;;;;;;;;;;;;;;;;;;6148804;23;19939;-93
2023/01/02 08:01:31;;;;;;;;;;;;;;;;;;6148576;23;20382;-92
2023/01/02 08:04:15;;;;;;;;;;;;;;;;;;6170490;23;20447;-92
2023/01/02 08:06:53;;;;;;;;;;;;;;;;;;6150301;23;19924;-92
2023/01/02 08:09:43;;;;;;;;;;;;;;;;;;6149521;23;19991;-92
2023/01/02 08:15:04;;;;;;;;;;;;;;;;;;6163455;23;19932;-91
2023/01/02 08:17:46;;;;;;;;;;;;;;;;;;;;;
2023/01/02 08:20:21;;;;;;;;;;;;;;;;;;6197877;23;19974;-92
2023/01/02 08:23:00;;;;;;;;;;;;;;;;;;6189565;23;19920;-92
2023/01/02 08:25:26;;;;;;;;;;;;;;;;;;6177920;23;19920;-91
2023/01/02 08:27:54;;;;;;;;;;;;;;;;;;6177185;23;19948;-91
2023/01/02 08:30:32;;;;;;;;;;;;;;;;;;6231401;23;19916;-93
2023/01/02 08:33:07;;;;;;;;;;;;;;;;;;6201602;23;19924;-92
2023/01/02 08:35:33;;;;;;;;;;;;;;;;;;6178445;23;19974;-92
2023/01/02 08:41:05;;;;;;;;;;;;;;;;;;6191000;23;19935;-92
2023/01/02 08:43:37;;;;;;;;;;;;;;;;;;6177338;23;20375;-91
2023/01/02 08:49:05;;;;;;;;;;;;;;;;;;6190412;23;19919;-91
2023/01/02 09:00:27;;;;;;;;;;;;;;;;;;6203787;23;20325;-92
2023/01/02 09:03:18;;;;;;;;;;;;;;;;;;;;;
2023/01/02 09:11:48;;;;;;;;;;;;;;;;;;6204942;23;19920;-92
2023/01/02 09:14:31;;;;;;;;;;;;;;;;;;6185668;23;19931;-93
2023/01/02 09:17:03;;;;;;;;;;;;;;;;;;6155848;23;20271;-94
2023/01/02 09:19:34;;;;;;;;;;;;;;;;;;6158215;23;20430;-93
2023/01/02 09:22:16;;;;;;;;;;;;;;;;;;;;;
2023/01/02 09:24:45;;;;;;;;;;;;;;;;;;6206409;23;20288;-93
2023/01/02 09:27:14;;;;;;;;;;;;;;;;;;6170732;23;20340;-93
2023/01/02 09:30:01;;;;;;;;;;;;;;;;;;6156416;23;20257;-92
2023/01/02 09:32:27;;;;;;;;;;;;;;;;;;6155902;23;19967;-92
2023/01/02 09:34:53;;;;;;;;;;;;;;;;;;6154522;23;20388;-92
2023/01/02 09:40:06;;;;;;;;;;;;;;;;;;6203950;23;19970;-93
2023/01/02 09:42:55;;;;;;;;;;;;;;;;;;6153871;23;19920;-93
2023/01/02 09:48:12;;;;;;;;;;;;;;;;;;6203473;23;19923;-91
2023/01/02 09:50:39;;;;;;;;;;;;;;;;;;6158049;23;19916;-93
2023/01/02 09:53:10;;;;;;;;;;;;;;;;;;6144889;23;19924;-94
2023/01/02 09:55:37;;;;;;;;;;;;;;;;;;6145779;23;19928;-93
2023/01/02 09:58:33;;;;;;;;;;;;;;;;;;;;;
2023/01/02 10:01:08;;;;;;;;;;;;;;;;;;6143282;23;19928;-93
2023/01/02 10:03:54;;;;;;;;;;;;;;;;;;;;;
2023/01/02 10:22:41;;;;;;;;;;;;;;;;;;6094491;23;19924;-93
2023/01/02 10:25:21;;;;;;;;;;;;;;;;;;;;;
2023/01/02 10:34:24;;;;;;;;;;;;;;;;;;5994777;23;20348;-94
2023/01/02 10:37:19;;;;;;;;;;;;;;;;;;;;;
2023/01/02 10:40:11;;;;;;;;;;;;;;;;;;;;;
2023/01/02 10:50:35;;;;;;;;;;;;;;;;;;6186093;22;19974;-91
2023/01/02 10:53:01;;;;;;;;;;;;;;;;;;6196861;23;19928;-91
2023/01/02 10:55:30;;;;;;;;;;;;;;;;;;6149489;23;19991;-91
2023/01/02 10:57:56;;;;;;;;;;;;;;;;;;6147852;23;19920;-91
2023/01/02 11:00:22;;;;;;;;;;;;;;;;;;6139788;23;20399;-93
2023/01/02 11:02:48;;;;;;;;;;;;;;;;;;6176478;23;19919;-91
2023/01/02 11:05:14;;;;;;;;;;;;;;;;;;6150122;23;19915;-91
2023/01/02 11:07:40;;;;;;;;;;;;;;;;;;6151645;23;19928;-91
2023/01/02 11:10:08;;;;;;;;;;;;;;;;;;6197214;23;19920;-91
2023/01/02 11:12:34;;;;;;;;;;;;;;;;;;6202049;23;19920;-91
2023/01/02 11:15:00;;;;;;;;;;;;;;;;;;6150938;23;19922;-92
2023/01/02 11:17:47;;;;;;;;;;;;;;;;;;6151431;23;19923;-92
2023/01/02 11:20:27;;;;;;;;;;;;;;;;;;6174174;23;19923;-91
2023/01/02 11:22:53;;;;;;;;;;;;;;;;;;6213738;23;19916;-91
2023/01/02 11:25:22;;;;;;;;;;;;;;;;;;6232593;23;19920;-91
2023/01/02 11:27:50;;;;;;;;;;;;;;;;;;6233774;23;19916;-91
2023/01/02 11:30:16;;;;;;;;;;;;;;;;;;6181521;23;19923;-92
2023/01/02 11:32:42;;;;;;;;;;;;;;;;;;6205620;23;19926;-92
2023/01/02 11:35:08;;;;;;;;;;;;;;;;;;6177378;23;20359;-91
2023/01/02 11:37:37;;;;;;;;;;;;;;;;;;6180496;23;19926;-92
2023/01/02 11:40:03;;;;;;;;;;;;;;;;;;6178589;23;19919;-91
2023/01/02 11:45:14;;;;;;;;;;;;;;;;;;6222919;23;20029;-91
2023/01/02 11:47:42;;;;;;;;;;;;;;;;;;6228856;23;19938;-91
2023/01/02 11:50:08;;;;;;;;;;;;;;;;;;6177881;23;20328;-90
2023/01/02 11:52:37;;;;;;;;;;;;;;;;;;6231564;23;19923;-91
2023/01/02 11:55:05;;;;;;;;;;;;;;;;;;6180707;23;19946;-90
2023/01/02 11:57:31;;;;;;;;;;;;;;;;;;6180122;23;19924;-91
2023/01/02 11:59:59;;;;;;;;;;;;;;;;;;6176233;23;19981;-91
2023/01/02 12:02:28;;;;;;;;;;;;;;;;;;6180666;23;20264;-92
2023/01/02 12:04:54;;;;;;;;;;;;;;;;;;6227111;23;19915;-92
2023/01/02 12:07:20;;;;;;;;;;;;;;;;;;6180558;23;19987;-91
2023/01/02 12:09:46;;;;;;;;;;;;;;;;;;6182850;23;19920;-91
2023/01/02 12:12:33;;;;;;;;;;;;;;;;;;6179443;23;19924;-91
2023/01/02 12:14:59;;;;;;;;;;;;;;;;;;6176965;23;19919;-90
2023/01/02 12:17:25;;;;;;;;;;;;;;;;;;6181825;23;20348;-90
2023/01/02 12:19:51;;;;;;;;;;;;;;;;;;6226876;23;19927;-90
2023/01/02 12:22:25;;;;;;;;;;;;;;;;;;6181750;23;19990;-91
2023/01/02 12:24:51;;;;;;;;;;;;;;;;;;6178146;23;19930;-90
2023/01/02 12:27:17;;;;;;;;;;;;;;;;;;6206350;23;19919;-90
2023/01/02 12:29:43;;;;;;;;;;;;;;;;;;6234162;23;19965;-90
2023/01/02 12:32:09;;;;;;;;;;;;;;;;;;6178523;23;20233;-91
2023/01/02 12:34:35;;;;;;;;;;;;;;;;;;6181783;23;19973;-92
2023/01/02 12:37:01;;;;;;;;;;;;;;;;;;6176678;23;19927;-91
2023/01/02 12:39:27;;;;;;;;;;;;;;;;;;6232386;23;19920;-91
2023/01/02 12:42:13;;;;;;;;;;;;;;;;;;6179620;23;19916;-90
2023/01/02 12:44:39;;;;;;;;;;;;;;;;;;6182592;23;19920;-90
2023/01/02 12:47:05;;;;;;;;;;;;;;;;;;6182190;23;19920;-90
2023/01/02 12:49:31;;;;;;;;;;;;;;;;;;6183224;23;19927;-91
2023/01/02 12:51:57;;;;;;;;;;;;;;;;;;6232924;23;19923;-90
2023/01/02 12:54:23;;;;;;;;;;;;;;;;;;6186762;23;19916;-91
2023/01/02 12:56:52;;;;;;;;;;;;;;;;;;6234843;23;20708;-92
2023/01/02 12:59:18;;;;;;;;;;;;;;;;;;6236006;23;19919;-90
2023/01/02 13:01:44;;;;;;;;;;;;;;;;;;6233241;23;19970;-91
2023/01/02 13:04:10;;;;;;;;;;;;;;;;;;6183207;23;19919;-90
2023/01/02 13:06:36;;;;;;;;;;;;;;;;;;6236860;23;20382;-90
2023/01/02 13:09:02;;;;;;;;;;;;;;;;;;6205730;23;19919;-91
2023/01/02 13:11:28;;;;;;;;;;;;;;;;;;6186274;23;19924;-90
2023/01/02 13:13:54;;;;;;;;;;;;;;;;;;6230759;23;20252;-90
2023/01/02 13:16:20;;;;;;;;;;;;;;;;;;6235409;23;19950;-90
2023/01/02 13:18:46;;;;;;;;;;;;;;;;;;6184421;23;20257;-90
2023/01/02 13:21:12;;;;;;;;;;;;;;;;;;6182745;23;19965;-90
2023/01/02 13:23:38;;;;;;;;;;;;;;;;;;6235293;22;20296;-90
2023/01/02 13:26:04;;;;;;;;;;;;;;;;;;6233225;23;19947;-90
2023/01/02 13:28:31;;;;;;;;;;;;;;;;;;6209083;23;20248;-90
2023/01/02 13:30:57;;;;;;;;;;;;;;;;;;6232414;23;19920;-89
2023/01/02 13:33:23;;;;;;;;;;;;;;;;;;6209594;23;19920;-90
2023/01/02 13:35:51;;;;;;;;;;;;;;;;;;6237468;23;20001;-90
2023/01/02 13:38:17;;;;;;;;;;;;;;;;;;6183927;23;19926;-90
2023/01/02 13:40:45;;;;;;;;;;;;;;;;;;6209279;23;20532;-90
2023/01/02 13:43:11;;;;;;;;;;;;;;;;;;6181851;23;20309;-90
2023/01/02 13:45:37;;;;;;;;;;;;;;;;;;6180782;23;19946;-90
2023/01/02 13:48:03;;;;;;;;;;;;;;;;;;6181134;23;20272;-90
2023/01/02 13:50:29;;;;;;;;;;;;;;;;;;6184193;23;19942;-90
2023/01/02 13:52:55;;;;;;;;;;;;;;;;;;6228541;23;19948;-90
2023/01/02 13:55:24;;;;;;;;;;;;;;;;;;6168529;23;19920;-90
2023/01/02 13:57:50;;;;;;;;;;;;;;;;;;6184403;23;19916;-91
2023/01/02 14:00:16;;;;;;;;;;;;;;;;;;6183745;23;19919;-89
2023/01/02 14:02:42;;;;;;;;;;;;;;;;;;6233722;23;19915;-90
2023/01/02 14:05:08;;;;;;;;;;;;;;;;;;6181663;23;19969;-90
2023/01/02 14:07:34;;;;;;;;;;;;;;;;;;6185350;23;19920;-90
2023/01/02 14:10:07;;;;;;;;;;;;;;;;;;6231762;23;19920;-90
2023/01/02 14:12:33;;;;;;;;;;;;;;;;;;6230273;23;19919;-90
2023/01/02 14:14:59;;;;;;;;;;;;;;;;;;6178446;23;19969;-90
2023/01/02 14:17:24;;;;;;;;;;;;;;;;;;6204086;23;19955;-91
2023/01/02 14:19:50;;;;;;;;;;;;;;;;;;6178181;23;20139;-91
2023/01/02 14:22:16;;;;;;;;;;;;;;;;;;6179868;23;20416;-89
2023/01/02 14:24:42;;;;;;;;;;;;;;;;;;6234675;23;19958;-90
2023/01/02 14:27:08;;;;;;;;;;;;;;;;;;6181412;23;19991;-90
2023/01/02 14:29:34;;;;;;;;;;;;;;;;;;6184239;23;20341;-90
2023/01/02 14:32:00;;;;;;;;;;;;;;;;;;6223820;23;19967;-91
2023/01/02 14:34:26;;;;;;;;;;;;;;;;;;6184366;23;20261;-90
2023/01/02 14:36:52;;;;;;;;;;;;;;;;;;6182201;23;19920;-90
2023/01/02 14:39:18;;;;;;;;;;;;;;;;;;6211213;23;19923;-90
2023/01/02 14:44:29;;;;;;;;;;;;;;;;;;6234246;23;19916;-91
2023/01/02 14:46:55;;;;;;;;;;;;;;;;;;6181433;23;19927;-90
2023/01/02 14:49:34;;;;;;;;;;;;;;;;;;;;;
2023/01/02 14:52:03;;;;;;;;;;;;;;;;;;6229482;23;20248;-90
2023/01/02 14:54:29;;;;;;;;;;;;;;;;;;6234585;23;19920;-90
2023/01/02 14:56:55;;;;;;;;;;;;;;;;;;6231143;23;20013;-90
2023/01/02 14:59:21;;;;;;;;;;;;;;;;;;6196688;23;20234;-90
2023/01/02 15:01:57;;;;;;;;;;;;;;;;;;;;;
2023/01/02 15:04:23;;;;;;;;;;;;;;;;;;6210462;23;20292;-90
2023/01/02 15:06:52;;;;;;;;;;;;;;;;;;6182026;23;19915;-91
2023/01/02 15:09:18;;;;;;;;;;;;;;;;;;6180907;23;19999;-91
2023/01/02 15:14:28;;;;;;;;;;;;;;;;;;6229521;23;20404;-91
2023/01/02 15:16:54;;;;;;;;;;;;;;;;;;6224988;23;19920;-92
2023/01/02 15:19:20;;;;;;;;;;;;;;;;;;6233285;23;19916;-91
2023/01/02 15:21:46;;;;;;;;;;;;;;;;;;6181092;22;19919;-92
2023/01/02 15:24:12;;;;;;;;;;;;;;;;;;6176845;23;19927;-92
2023/01/02 15:27:04;;;;;;;;;;;;;;;;;;;;;
2023/01/02 15:36:24;;;;;;;;;;;;;;;;;;6201368;23;19935;-91
2023/01/02 17:19:05;;;;;;;;;;;;;;;;;;6181367;23;19959;31
2023/01/02 18:58:30;;;;;;;;;;;;;;;;;;6166537;23;19920;-88
2023/01/02 19:00:56;;;;;;;;;;;;;;;;;;6201585;23;19923;-88
2023/01/02 19:03:25;;;;;;;;;;;;;;;;;;6201880;23;20337;-88
2023/01/02 19:05:54;;;;;;;;;;;;;;;;;;6202133;23;19939;-88
2023/01/02 19:08:23;;;;;;;;;;;;;;;;;;6154690;23;20330;-88
2023/01/02 19:10:55;;;;;;;;;;;;;;;;;;6153476;23;19919;-89
2023/01/02 19:13:39;;;;;;;;;;;;;;;;;;6204487;23;20352;-88
2023/01/02 19:16:05;;;;;;;;;;;;;;;;;;6200196;23;20609;-89
2023/01/02 19:18:34;;;;;;;;;;;;;;;;;;6152695;23;20361;-89
2023/01/02 19:21:03;;;;;;;;;;;;;;;;;;6149344;23;19970;-88
2023/01/02 19:23:29;;;;;;;;;;;;;;;;;;6177616;23;19919;-89
2023/01/02 19:25:58;;;;;;;;;;;;;;;;;;6204547;23;19955;-88
2023/01/02 19:28:27;;;;;;;;;;;;;;;;;;6233435;23;20234;-88
2023/01/02 19:30:56;;;;;;;;;;;;;;;;;;6180505;23;19955;-88
2023/01/02 19:33:29;;;;;;;;;;;;;;;;;;6181205;23;19919;-88
2023/01/02 19:35:58;;;;;;;;;;;;;;;;;;6231406;23;19998;-88
2023/01/02 19:38:24;;;;;;;;;;;;;;;;;;6234249;23;20245;-88
2023/01/02 19:40:50;;;;;;;;;;;;;;;;;;6231344;23;20393;-88
2023/01/02 19:43:19;;;;;;;;;;;;;;;;;;6207987;23;19973;-88
2023/01/02 19:45:48;;;;;;;;;;;;;;;;;;6228454;23;19919;-88
2023/01/02 19:48:17;;;;;;;;;;;;;;;;;;6179564;23;19923;-88
2023/01/02 19:50:43;;;;;;;;;;;;;;;;;;6181271;23;19919;-88
2023/01/02 20:40:40;;;;;;;;;;;;;;;;;;6181179;23;19924;-87
2023/01/02 20:43:06;;;;;;;;;;;;;;;;;;6196459;23;19930;-88
2023/01/02 20:45:32;;;;;;;;;;;;;;;;;;6197404;23;20257;-88
2023/01/02 20:47:58;;;;;;;;;;;;;;;;;;6195652;23;19920;-88
2023/01/02 20:50:24;;;;;;;;;;;;;;;;;;6201068;23;19970;-88
2023/01/02 20:52:52;;;;;;;;;;;;;;;;;;6203014;23;19924;-88
2023/01/02 20:55:18;;;;;;;;;;;;;;;;;;6203586;23;19919;-88
2023/01/02 20:57:44;;;;;;;;;;;;;;;;;;6202875;23;19920;-88
2023/01/02 21:00:10;;;;;;;;;;;;;;;;;;6200390;23;20354;-88
2023/01/02 21:02:36;;;;;;;;;;;;;;;;;;6201088;23;19926;-87
2023/01/02 21:05:02;;;;;;;;;;;;;;;;;;6197517;23;19930;-87
2023/01/02 21:07:28;;;;;;;;;;;;;;;;;;6197778;23;20403;-88
2023/01/02 21:09:56;;;;;;;;;;;;;;;;;;6196179;23;19919;-87
2023/01/02 21:15:07;;;;;;;;;;;;;;;;;;6168307;23;19926;-88
2023/01/02 21:17:33;;;;;;;;;;;;;;;;;;6148968;23;20624;-88
2023/01/02 21:19:59;;;;;;;;;;;;;;;;;;6199152;23;19971;-88
2023/01/02 21:22:25;;;;;;;;;;;;;;;;;;6160317;23;20413;-88
2023/01/02 21:24:51;;;;;;;;;;;;;;;;;;6199124;23;19925;-88
2023/01/02 21:27:17;;;;;;;;;;;;;;;;;;6179903;23;20383;-88
2023/01/02 21:29:44;;;;;;;;;;;;;;;;;;6206896;23;19919;-88
2023/01/02 21:32:10;;;;;;;;;;;;;;;;;;6231975;23;20535;-87
2023/01/02 21:34:36;;;;;;;;;;;;;;;;;;6235213;23;20723;-87
2023/01/02 21:37:02;;;;;;;;;;;;;;;;;;6179555;23;19919;-88
2023/01/02 21:39:28;;;;;;;;;;;;;;;;;;6180720;23;19924;-88
2023/01/02 21:44:39;;;;;;;;;;;;;;;;;;6226225;23;19930;-89
2023/01/02 21:47:05;;;;;;;;;;;;;;;;;;6178260;23;19927;-88
2023/01/02 21:49:31;;;;;;;;;;;;;;;;;;6208929;23;19915;-88
2023/01/02 21:51:57;;;;;;;;;;;;;;;;;;6181245;23;19965;-88
2023/01/02 21:54:23;;;;;;;;;;;;;;;;;;6209478;23;19915;-88
2023/01/02 21:56:52;;;;;;;;;;;;;;;;;;6181491;23;19974;-87
2023/01/02 21:59:18;;;;;;;;;;;;;;;;;;6181121;23;19924;-88
2023/01/02 22:01:43;;;;;;;;;;;;;;;;;;6207692;23;19926;-87
2023/01/02 22:04:09;;;;;;;;;;;;;;;;;;6204786;23;19919;-88
2023/01/02 22:06:35;;;;;;;;;;;;;;;;;;6208497;23;20084;-88
2023/01/02 22:09:01;;;;;;;;;;;;;;;;;;6230068;23;19926;-88
2023/01/02 22:14:12;;;;;;;;;;;;;;;;;;6228774;23;19919;-88
2023/01/02 22:16:38;;;;;;;;;;;;;;;;;;6208433;23;19922;-88
2023/01/02 22:19:04;;;;;;;;;;;;;;;;;;6179777;23;19958;-88
2023/01/02 22:21:30;;;;;;;;;;;;;;;;;;6206882;23;20363;-88
2023/01/02 22:23:56;;;;;;;;;;;;;;;;;;6175397;23;19942;-88
2023/01/02 22:26:22;;;;;;;;;;;;;;;;;;6179577;23;19916;-88
2023/01/02 22:28:48;;;;;;;;;;;;;;;;;;6183578;23;19926;-88
2023/01/02 22:31:14;;;;;;;;;;;;;;;;;;6178873;23;19923;-87
2023/01/02 22:33:40;;;;;;;;;;;;;;;;;;6181904;23;20002;-88
2023/01/02 22:36:06;;;;;;;;;;;;;;;;;;6180615;23;19919;-87
2023/01/02 22:38:32;;;;;;;;;;;;;;;;;;6234584;23;19915;-88
2023/01/02 22:40:58;;;;;;;;;;;;;;;;;;6179680;23;19959;-89
2023/01/02 22:43:24;;;;;;;;;;;;;;;;;;6205621;23;19974;-88
2023/01/02 22:45:50;;;;;;;;;;;;;;;;;;6178233;23;20353;-88
2023/01/02 22:48:16;;;;;;;;;;;;;;;;;;6229565;23;19991;-87
2023/01/02 22:50:42;;;;;;;;;;;;;;;;;;6206752;23;19982;-87
2023/01/02 22:53:08;;;;;;;;;;;;;;;;;;6199889;23;20356;-88
2023/01/02 22:55:34;;;;;;;;;;;;;;;;;;6202611;23;19919;-87
2023/01/02 22:58:00;;;;;;;;;;;;;;;;;;6174170;23;20560;-87
2023/01/02 23:00:26;;;;;;;;;;;;;;;;;;6205360;23;19923;-88
2023/01/02 23:02:52;;;;;;;;;;;;;;;;;;6198989;23;19973;-88
2023/01/02 23:05:18;;;;;;;;;;;;;;;;;;6180525;23;19994;-87
2023/01/02 23:07:44;;;;;;;;;;;;;;;;;;6178020;23;19966;-88
2023/01/02 23:10:10;;;;;;;;;;;;;;;;;;6175627;23;20471;-87
2023/01/02 23:12:36;;;;;;;;;;;;;;;;;;6202312;23;20002;-88
2023/01/02 23:15:02;;;;;;;;;;;;;;;;;;6202135;23;19927;-87
2023/01/02 23:20:12;;;;;;;;;;;;;;;;;;6226138;23;19926;-88
2023/01/02 23:22:38;;;;;;;;;;;;;;;;;;6206137;23;19916;-87
2023/01/02 23:25:06;;;;;;;;;;;;;;;;;;6227112;23;19920;-87
2023/01/02 23:27:32;;;;;;;;;;;;;;;;;;6225613;23;19965;-88
2023/01/02 23:29:58;;;;;;;;;;;;;;;;;;6202347;23;20291;-87
2023/01/02 23:32:24;;;;;;;;;;;;;;;;;;6204564;23;19924;-88
2023/01/02 23:34:50;;;;;;;;;;;;;;;;;;6182879;23;20018;-87
2023/01/02 23:37:16;;;;;;;;;;;;;;;;;;6207078;23;20312;-88
2023/01/02 23:39:42;;;;;;;;;;;;;;;;;;6205820;23;19927;-88
2023/01/02 23:42:08;;;;;;;;;;;;;;;;;;6202885;23;19919;-88
2023/01/02 23:44:34;;;;;;;;;;;;;;;;;;6205423;23;19920;-88
2023/01/02 23:47:00;;;;;;;;;;;;;;;;;;6177585;23;20667;-88
2023/01/02 23:49:26;;;;;;;;;;;;;;;;;;6182485;23;20010;-88
2023/01/02 23:51:54;;;;;;;;;;;;;;;;;;6230867;23;19979;-88
2023/01/02 23:54:20;;;;;;;;;;;;;;;;;;6205802;23;20258;-88
2023/01/02 23:56:46;;;;;;;;;;;;;;;;;;6207503;23;19951;-88
2023/01/02 23:59:12;;;;;;;;;;;;;;;;;;6179264;23;20889;-88
